Terminal Aerodrome Forecast
Issued by NWS Louisville, KY

Home | Current Version | Previous Version | Text Only | Print | Product List | Glossary On
Versions: 1 2 3 4 5 6 7 8 9 10 11 12 13 14 15 16 17 18
000
FTUS43 KLMK 201100
TAFLEX
TAF
KLEX 201126Z 2012/2112 13005KT 6SM BR BKN021
     FM201300 18007KT P6SM SCT030
     FM210000 27008KT P6SM VCTS BKN050CB
     FM210600 20003KT P6SM SCT050 BKN250=

USA.gov is the U.S. government's official web portal to all federal, state and local government web resources and services.